Terminal Aerodrome Forecast
Issued by NWS Knoxville/Tri Cities, TN

Home | Current Version | Previous Version | Text Only | Print | Product List | Glossary On
Versions: 1 2 3 4 5 6 7 8 9 10 11 12
000
FTUS44 KMRX 211723
TAFTYS
TAF
KTYS 211723Z 2118/2218 VRB03KT P6SM SCT050 BKN080
     FM220000 00000KT P6SM SCT060 BKN250
      TEMPO 2209/2213 4SM BR
     FM221500 17010KT P6SM SCT030 BKN100=

USA.gov is the U.S. government's official web portal to all federal, state and local government web resources and services.